createdAt,value
2022-11-04T00:00:01.639Z,14.70
2022-11-04T00:04:02.481Z,14.63
2022-11-04T00:08:15.033Z,15.23
2022-11-04T00:12:29.808Z,15.90
2022-11-04T00:16:42.410Z,13.00
2022-11-04T00:20:54.956Z,15.27
2022-11-04T00:25:07.512Z,13.80
2022-11-04T00:29:10.175Z,14.57
2022-11-04T00:33:22.784Z,14.53
2022-11-04T00:37:22.980Z,15.03
2022-11-04T00:41:30.485Z,20.10
2022-11-04T00:45:34.081Z,16.10
2022-11-04T00:49:34.191Z,16.50
2022-11-04T00:53:34.287Z,19.80
2022-11-04T00:57:34.826Z,17.80
2022-11-04T01:01:37.585Z,16.03
2022-11-04T01:05:40.693Z,16.33
2022-11-04T01:09:41.039Z,16.80
2022-11-04T01:13:42.674Z,19.23
2022-11-04T01:17:45.349Z,16.30
2022-11-04T01:21:45.542Z,17.70
2022-11-04T01:25:45.713Z,20.00
2022-11-04T01:29:46.175Z,17.10
2022-11-04T01:33:48.867Z,16.20
2022-11-04T01:37:49.073Z,15.10
2022-11-04T01:41:49.171Z,15.87
2022-11-04T01:45:55.567Z,11.83
2022-11-04T01:50:04.808Z,11.23
2022-11-04T01:54:07.569Z,10.30
2022-11-04T01:58:13.830Z,10.90
2022-11-04T02:02:14.056Z,9.93
2022-11-04T02:06:19.918Z,10.23
2022-11-04T02:10:23.344Z,8.60
2022-11-04T02:14:23.541Z,10.10
2022-11-04T02:18:50.648Z,8.83
2022-11-04T02:23:44.197Z,9.90
2022-11-04T02:28:14.717Z,9.37
2022-11-04T02:32:30.343Z,7.23
2022-11-04T02:36:42.937Z,7.47
2022-11-04T02:40:52.158Z,7.23
2022-11-04T02:45:02.805Z,6.70
2022-11-04T02:49:15.955Z,6.17
2022-11-04T02:53:23.477Z,8.17
2022-11-04T02:57:31.480Z,5.10
2022-11-04T03:01:39.306Z,4.20
2022-11-04T03:05:47.336Z,5.83
2022-11-04T03:09:54.665Z,4.93
2022-11-04T03:14:03.532Z,3.27
2022-11-04T03:18:18.288Z,4.60
2022-11-04T03:22:25.121Z,4.10
2022-11-04T03:26:33.702Z,3.47
2022-11-04T03:30:41.900Z,2.90
2022-11-04T03:34:42.534Z,3.47
2022-11-04T03:38:45.652Z,2.87
2022-11-04T03:42:53.422Z,3.17
2022-11-04T03:46:55.361Z,4.53
2022-11-04T03:50:55.507Z,3.87
2022-11-04T03:54:58.289Z,2.30
2022-11-04T03:59:18.921Z,2.63
2022-11-04T04:03:28.438Z,3.40
2022-11-04T04:07:37.042Z,3.07
2022-11-04T04:11:51.030Z,2.37
2022-11-04T04:15:59.704Z,3.17
2022-11-04T04:20:04.944Z,3.57
2022-11-04T04:24:23.699Z,2.10
2022-11-04T04:28:27.150Z,3.30
2022-11-04T04:32:33.038Z,2.67
2022-11-04T04:36:42.243Z,2.17
2022-11-04T04:40:55.333Z,1.90
2022-11-04T04:45:06.141Z,1.70
2022-11-04T04:49:10.384Z,2.10
2022-11-04T04:53:11.343Z,3.43
2022-11-04T04:57:11.844Z,1.73
2022-11-04T05:01:14.931Z,2.37
2022-11-04T05:05:16.667Z,2.23
2022-11-04T05:09:16.895Z,1.93
2022-11-04T05:13:30.183Z,4.60
2022-11-04T05:17:33.032Z,5.30
2022-11-04T05:21:33.235Z,2.70
2022-11-04T05:25:33.461Z,6.03
2022-11-04T05:29:33.672Z,3.73
2022-11-04T05:33:36.765Z,3.43
2022-11-04T05:37:36.879Z,3.10
2022-11-04T05:41:37.450Z,3.47
2022-11-04T05:45:37.533Z,2.27
2022-11-04T05:49:40.268Z,3.70
2022-11-04T05:53:40.382Z,4.27
2022-11-04T05:57:40.544Z,3.03
2022-11-04T06:01:44.295Z,2.93
2022-11-04T06:05:47.045Z,4.30
2022-11-04T06:09:47.121Z,4.23
2022-11-04T06:13:47.229Z,2.63
2022-11-04T06:17:47.515Z,3.10
2022-11-04T06:21:50.407Z,2.80
2022-11-04T06:25:50.533Z,2.40
2022-11-04T06:29:50.720Z,3.77
2022-11-04T06:33:52.121Z,3.23
2022-11-04T06:37:54.739Z,3.10
2022-11-04T06:41:56.668Z,9.20
2022-11-04T06:46:01.922Z,4.33
2022-11-04T06:50:02.061Z,4.30
2022-11-04T06:54:04.739Z,3.27
2022-11-04T06:58:04.991Z,3.00
2022-11-04T07:02:05.180Z,6.10
2022-11-04T07:06:10.613Z,4.30
2022-11-04T07:10:14.095Z,5.20
2022-11-04T07:14:15.101Z,5.47
2022-11-04T07:18:15.255Z,3.37
2022-11-04T07:22:15.376Z,3.33
2022-11-04T07:26:18.376Z,4.33
2022-11-04T07:30:20.353Z,3.97
2022-11-04T07:34:28.817Z,5.37
2022-11-04T07:38:29.028Z,3.50
2022-11-04T07:42:32.130Z,5.00
2022-11-04T07:46:39.019Z,2.97
2022-11-04T07:50:42.952Z,5.70
2022-11-04T07:54:43.170Z,3.80
2022-11-04T07:58:46.295Z,3.30
2022-11-04T08:02:47.337Z,3.87
2022-11-04T08:06:50.414Z,5.27
2022-11-04T08:10:57.160Z,3.87
2022-11-04T08:14:59.907Z,4.47
2022-11-04T08:19:01.931Z,6.53
2022-11-04T08:23:02.091Z,4.03
2022-11-04T08:27:02.309Z,3.97
2022-11-04T08:31:09.126Z,2.97
2022-11-04T08:35:12.096Z,4.93
2022-11-04T08:39:13.725Z,3.30
2022-11-04T08:43:14.343Z,3.97
2022-11-04T08:47:17.070Z,2.60
2022-11-04T08:51:21.675Z,4.63
2022-11-04T08:55:24.772Z,3.00
2022-11-04T08:59:27.804Z,4.67
2022-11-04T09:03:30.557Z,7.53
2022-11-04T09:07:30.817Z,3.13
2022-11-04T09:11:31.409Z,4.63
2022-11-04T09:15:31.545Z,7.00
2022-11-04T09:19:34.380Z,5.43
2022-11-04T09:23:34.900Z,4.27
2022-11-04T09:27:35.130Z,4.33
2022-11-04T09:31:35.314Z,5.33
2022-11-04T09:35:38.403Z,7.10
2022-11-04T09:39:38.553Z,3.93
2022-11-04T09:43:56.376Z,4.60
2022-11-04T09:48:02.608Z,4.27
2022-11-04T09:52:15.727Z,3.37
2022-11-04T09:56:23.915Z,4.77
2022-11-04T10:00:24.980Z,6.47
2022-11-04T10:04:42.231Z,4.67
2022-11-04T10:09:03.145Z,5.03
2022-11-04T10:13:23.523Z,3.97
2022-11-04T10:17:51.211Z,4.67
2022-11-04T10:22:07.513Z,4.50
2022-11-04T10:26:20.783Z,6.03
2022-11-04T10:30:25.034Z,11.60
2022-11-04T10:34:37.911Z,3.23
2022-11-04T10:38:44.008Z,5.37
2022-11-04T10:42:47.145Z,6.00
2022-11-04T10:47:02.296Z,5.87
2022-11-04T10:51:03.223Z,8.27
2022-11-04T10:55:03.493Z,4.23
2022-11-04T10:59:26.085Z,7.30
2022-11-04T11:03:34.463Z,6.20
2022-11-04T11:07:40.058Z,5.00
2022-11-04T11:11:48.140Z,6.60
2022-11-04T11:15:51.147Z,4.93
2022-11-04T11:20:00.788Z,5.77
2022-11-04T11:24:20.906Z,4.37
2022-11-04T11:28:27.960Z,6.87
2022-11-04T11:32:43.392Z,3.07
2022-11-04T11:36:48.193Z,5.47
2022-11-04T11:41:18.679Z,13.90
2022-11-04T11:45:20.088Z,4.03
2022-11-04T11:49:31.296Z,5.17
2022-11-04T11:53:35.619Z,5.30
2022-11-04T12:02:31.522Z,3.70
2022-11-04T12:11:30.625Z,4.80
2022-11-04T12:15:48.064Z,3.67
2022-11-04T12:20:10.164Z,3.03
2022-11-04T12:24:32.962Z,7.33
2022-11-04T12:28:49.792Z,8.60
2022-11-04T12:33:13.202Z,3.83
2022-11-04T12:37:31.441Z,4.50
2022-11-04T12:42:18.949Z,3.83
2022-11-04T12:46:20.783Z,8.33
2022-11-04T12:50:49.885Z,5.40
2022-11-04T12:55:09.043Z,5.33
2022-11-04T12:59:52.180Z,11.87
2022-11-04T13:04:00.848Z,4.97
2022-11-04T13:08:14.622Z,8.70
2022-11-04T13:12:39.219Z,7.83
2022-11-04T13:16:46.811Z,11.73
2022-11-04T13:21:02.124Z,7.40
2022-11-04T13:25:11.176Z,9.10
2022-11-04T13:29:21.393Z,17.60
2022-11-04T13:33:38.823Z,4.47
2022-11-04T13:37:47.402Z,6.57
2022-11-04T13:42:39.845Z,6.90
2022-11-04T13:46:40.109Z,6.23
2022-11-04T13:50:43.771Z,7.37
2022-11-04T13:54:48.559Z,5.77
2022-11-04T13:58:56.028Z,6.10
2022-11-04T14:02:58.841Z,6.13
2022-11-04T14:07:05.094Z,6.53
2022-11-04T14:11:14.786Z,6.30
2022-11-04T14:20:01.763Z,4.97
2022-11-04T14:24:16.776Z,7.17
2022-11-04T14:28:31.153Z,11.13
2022-11-04T14:32:42.974Z,7.43
2022-11-04T14:36:44.696Z,8.27
2022-11-04T14:40:54.978Z,6.83
2022-11-04T14:44:55.323Z,10.80
2022-11-04T14:49:01.877Z,5.03
2022-11-04T14:53:07.355Z,5.30
2022-11-04T14:57:18.000Z,6.30
2022-11-04T15:01:19.843Z,7.30
2022-11-04T15:05:29.698Z,9.73
2022-11-04T15:09:35.222Z,8.57
2022-11-04T15:13:47.781Z,10.87
2022-11-04T15:17:47.947Z,8.20
2022-11-04T15:21:51.510Z,10.13
2022-11-04T15:25:52.847Z,9.50
2022-11-04T15:30:08.165Z,19.40
2022-11-04T15:34:14.466Z,11.67
2022-11-04T15:38:18.187Z,11.20
2022-11-04T15:42:48.730Z,11.57
2022-11-04T15:46:59.043Z,9.83
2022-11-04T15:51:15.660Z,8.57
2022-11-04T15:55:25.442Z,8.93
2022-11-04T15:59:31.031Z,13.03
2022-11-04T16:03:34.081Z,13.00
2022-11-04T16:07:40.523Z,10.47
2022-11-04T16:11:41.152Z,10.57
2022-11-04T16:15:45.726Z,8.47
2022-11-04T16:19:54.874Z,11.33
2022-11-04T16:24:01.618Z,10.50
2022-11-04T16:28:02.098Z,11.20
2022-11-04T16:32:19.844Z,13.23
2022-11-04T16:36:30.922Z,16.10
2022-11-04T16:40:36.969Z,14.53
2022-11-04T16:44:37.130Z,19.17
2022-11-04T16:48:37.162Z,18.40
2022-11-04T16:52:44.064Z,17.70
2022-11-04T16:56:45.499Z,20.60
2022-11-04T17:00:45.739Z,17.33
2022-11-04T17:04:46.759Z,20.60
2022-11-04T17:08:49.943Z,25.07
2022-11-04T17:12:50.500Z,27.43
2022-11-04T17:16:50.608Z,21.90
2022-11-04T17:20:57.149Z,19.70
2022-11-04T17:24:59.869Z,15.50
2022-11-04T17:29:00.364Z,12.93
2022-11-04T17:33:00.600Z,13.13
2022-11-04T17:37:00.686Z,20.83
2022-11-04T17:41:15.928Z,18.80
2022-11-04T17:45:16.001Z,17.57
2022-11-04T17:49:19.009Z,21.60
2022-11-04T17:53:19.084Z,25.33
2022-11-04T17:57:22.317Z,29.03
2022-11-04T18:01:26.069Z,24.60
2022-11-04T18:05:26.212Z,16.50
2022-11-04T18:09:26.423Z,34.97
2022-11-04T18:13:29.335Z,30.33
2022-11-04T18:17:29.411Z,24.27
2022-11-04T18:21:31.075Z,22.63
2022-11-04T18:25:31.163Z,24.10
2022-11-04T18:29:33.799Z,20.37
2022-11-04T18:33:33.871Z,19.13
2022-11-04T18:37:33.900Z,18.07
2022-11-04T18:41:33.981Z,21.70
2022-11-04T18:45:36.655Z,23.93
2022-11-04T18:49:36.772Z,20.23
2022-11-04T18:53:36.882Z,19.57
2022-11-04T18:57:37.817Z,14.93
2022-11-04T19:01:40.975Z,13.43
2022-11-04T19:05:44.517Z,17.83
2022-11-04T19:09:47.528Z,18.07
2022-11-04T19:13:54.420Z,16.13
2022-11-04T19:17:57.152Z,14.97
2022-11-04T19:21:57.202Z,15.93
2022-11-04T19:26:02.002Z,15.37
2022-11-04T19:30:02.440Z,11.17
2022-11-04T19:34:07.398Z,13.43
2022-11-04T19:38:07.725Z,10.20
2022-11-04T19:42:21.050Z,13.83
2022-11-04T19:46:21.096Z,10.50
2022-11-04T19:50:23.991Z,11.53
2022-11-04T19:54:24.111Z,10.70
2022-11-04T19:58:25.237Z,11.83
2022-11-04T20:02:25.452Z,11.33
2022-11-04T20:06:28.356Z,11.87
2022-11-04T20:10:28.685Z,18.43
2022-11-04T20:14:31.092Z,17.07
2022-11-04T20:18:31.410Z,28.77
2022-11-04T20:22:34.201Z,26.23
2022-11-04T20:26:36.167Z,22.70
2022-11-04T20:30:40.115Z,26.67
2022-11-04T20:34:40.363Z,21.43
2022-11-04T20:38:43.099Z,23.30
2022-11-04T20:42:47.902Z,22.63
2022-11-04T20:46:48.301Z,22.07
2022-11-04T20:50:48.496Z,23.33
2022-11-04T20:54:51.170Z,20.63
2022-11-04T20:58:56.003Z,21.57
2022-11-04T21:02:58.791Z,23.20
2022-11-04T21:06:58.878Z,26.60
2022-11-04T21:11:01.712Z,25.90
2022-11-04T21:15:01.807Z,23.60
2022-11-04T21:19:02.188Z,37.00
2022-11-04T21:23:02.273Z,28.33
2022-11-04T21:27:05.314Z,30.83
2022-11-04T21:31:09.536Z,27.67
2022-11-04T21:35:10.746Z,35.23
2022-11-04T21:39:12.918Z,37.10
2022-11-04T21:43:16.285Z,28.60
2022-11-04T21:47:16.697Z,23.03
2022-11-04T21:51:20.342Z,27.73
2022-11-04T21:55:20.482Z,24.80
2022-11-04T21:59:24.144Z,15.80
2022-11-04T22:03:24.216Z,13.37
2022-11-04T22:07:40.179Z,14.97
2022-11-04T22:11:40.319Z,16.87
2022-11-04T22:15:55.647Z,16.23
2022-11-04T22:19:55.776Z,20.40
2022-11-04T22:23:56.267Z,16.27
2022-11-04T22:27:56.540Z,14.23
2022-11-04T22:31:59.491Z,14.70
2022-11-04T22:35:59.585Z,14.40
2022-11-04T22:39:59.685Z,15.20
2022-11-04T22:44:00.138Z,14.03
2022-11-04T22:48:02.832Z,13.77
2022-11-04T22:52:02.884Z,20.70
2022-11-04T22:56:05.150Z,12.40
2022-11-04T23:00:06.037Z,14.50
2022-11-04T23:04:12.229Z,13.83
2022-11-04T23:08:12.399Z,14.50
2022-11-04T23:12:25.421Z,18.77
2022-11-04T23:16:39.683Z,12.23
2022-11-04T23:20:42.651Z,20.97
2022-11-04T23:24:55.248Z,8.60
2022-11-04T23:29:07.816Z,12.37
2022-11-04T23:33:12.531Z,9.67
2022-11-04T23:37:14.064Z,10.03
2022-11-04T23:41:26.653Z,10.20
2022-11-04T23:45:40.192Z,22.00
2022-11-04T23:49:52.722Z,12.00
2022-11-04T23:54:07.859Z,8.53
2022-11-04T23:58:20.376Z,12.17
